Terminal Aerodrome Forecast
Issued by NWS Tulsa, OK

Home | Current Version | Previous Version | Text Only | Print | Product List | Glossary On
Versions: 1 2 3 4 5 6 7 8 9 10 11 12 13 14 15 16 17 18 19 20
000
FTUS44 KTSA 240800 AAB
TAFTUL
TAF AMD
KTUL 240851Z 2409/2506 17020G30KT P6SM BKN200
     FM241100 18012G24KT P6SM VCTS BKN025CB
      TEMPO 2411/2414 3SM -TSRA BR BKN025CB
     FM242000 32011G21KT P6SM BKN050
     FM250000 33007KT P6SM SCT250=

USA.gov is the U.S. government's official web portal to all federal, state and local government web resources and services.